Time;durP1;ratioP1;P1;durP2;ratioP2;P2;SDS_P1;SDS_P2;PMS_P1;PMS_P2;Temp;Humidity;BMP_temperature;BMP_pressure;BME280_temperature;BME280_humidity;BME280_pressure;Samples;Min_cycle;Max_cycle;Signal;HPM_P1;HPM_P2
2022/06/09 00:01:00;;;;;;;5.60;3.30;;;;;;;25.66;46.09;100218.09;106910;1283;61240;-83
2022/06/09 00:03:29;;;;;;;5.40;3.20;;;;;;;25.67;46.11;100211.91;107223;1283;61092;-79
2022/06/09 00:05:55;;;;;;;6.10;3.10;;;;;;;25.67;45.97;100216.98;106923;1283;73743;-81
2022/06/09 00:08:21;;;;;;;7.50;3.20;;;;;;;25.66;46.17;100215.39;106921;1283;61440;-83
2022/06/09 00:10:58;;;;;;;5.70;3.10;;;;;;;25.66;46.07;100215.75;107005;1283;61237;-81
2022/06/09 00:13:24;;;;;;;5.30;3.00;;;;;;;25.66;46.27;100217.39;106900;1283;61365;-84
2022/06/09 00:15:49;;;;;;;5.10;3.10;;;;;;;25.66;46.34;100217.58;106587;1283;61285;-82
2022/06/09 00:18:15;;;;;;;5.20;3.20;;;;;;;25.66;46.06;100219.20;106851;1283;61257;-83
2022/06/09 00:20:41;;;;;;;5.40;3.20;;;;;;;25.66;46.15;100223.33;106931;1283;61204;-81
2022/06/09 00:23:07;;;;;;;4.80;2.90;;;;;;;25.66;46.25;100218.45;106908;1283;61241;-82
2022/06/09 00:25:35;;;;;;;4.70;3.10;;;;;;;25.66;46.27;100217.92;106867;1283;61308;-81
2022/06/09 00:28:01;;;;;;;5.50;3.00;;;;;;;25.66;46.23;100212.91;106885;1283;61215;-81
2022/06/09 00:30:27;;;;;;;4.90;3.30;;;;;;;25.66;46.26;100208.21;106916;1283;61273;-79
2022/06/09 00:32:53;;;;;;;4.80;3.50;;;;;;;25.66;46.24;100213.43;106619;1283;61368;-83
2022/06/09 00:35:18;;;;;;;4.70;3.20;;;;;;;25.66;46.23;100208.96;106947;1283;61360;-86
2022/06/09 00:37:44;;;;;;;5.80;3.10;;;;;;;25.65;46.38;100209.70;106928;1283;71529;-81
2022/06/09 00:40:12;;;;;;;4.30;3.00;;;;;;;25.65;46.34;100208.63;106899;1283;61259;-82
2022/06/09 00:42:38;;;;;;;4.50;3.10;;;;;;;25.66;46.46;100206.81;106873;1283;61418;-81
2022/06/09 00:45:24;;;;;;;6.00;3.00;;;;;;;25.65;46.39;100201.63;106910;1283;61279;-82
2022/06/09 00:47:50;;;;;;;5.10;2.90;;;;;;;25.65;46.38;100198.79;106944;1283;74425;-84
2022/06/09 00:50:17;;;;;;;5.50;3.30;;;;;;;25.65;46.42;100198.61;106558;1284;61199;-82
2022/06/09 00:52:45;;;;;;;4.70;3.00;;;;;;;25.64;46.48;100202.42;106592;1284;60852;-82
2022/06/09 00:55:13;;;;;;;7.30;3.30;;;;;;;25.65;46.59;100205.23;106901;1283;62307;-81
2022/06/09 00:58:02;;;;;;;4.70;3.10;;;;;;;25.65;46.55;100202.40;106838;1284;74721;-79
2022/06/09 01:00:31;;;;;;;4.90;3.20;;;;;;;25.64;46.55;100199.92;106838;1283;74659;-84
2022/06/09 01:02:58;;;;;;;4.80;3.00;;;;;;;25.64;46.41;100201.76;106931;1283;61247;-81
2022/06/09 01:05:23;;;;;;;5.00;3.00;;;;;;;25.64;46.70;100204.59;107012;1283;61394;-82
2022/06/09 01:07:52;;;;;;;4.40;2.70;;;;;;;25.64;46.68;100207.29;106955;1283;61948;-83
2022/06/09 01:10:17;;;;;;;5.00;3.10;;;;;;;25.65;46.69;100211.05;106684;1283;75615;-82
2022/06/09 01:12:44;;;;;;;4.90;3.10;;;;;;;25.64;46.74;100214.31;106919;1283;61492;-83
2022/06/09 01:15:13;;;;;;;5.50;3.10;;;;;;;25.64;46.75;100210.54;106925;1283;61264;-82
2022/06/09 01:17:43;;;;;;;5.20;3.10;;;;;;;25.64;46.78;100210.94;106654;1283;74000;-82
2022/06/09 01:20:21;;;;;;;5.50;3.10;;;;;;;25.64;46.73;100214.55;107020;1283;74667;-83
2022/06/09 01:23:18;;;;;;;5.80;3.20;;;;;;;25.64;46.84;100216.02;107242;1283;61266;-83
2022/06/09 01:25:47;;;;;;;5.10;3.20;;;;;;;25.63;46.76;100219.31;107041;1282;61238;-82
2022/06/09 01:28:30;;;;;;;5.00;2.80;;;;;;;25.63;46.82;100222.15;107215;1283;72754;-84
2022/06/09 01:31:11;;;;;;;6.00;2.90;;;;;;;25.64;46.73;100220.50;106935;1283;75297;-82
2022/06/09 01:34:03;;;;;;;4.70;3.10;;;;;;;25.64;46.82;100218.73;107228;1283;61281;-82
2022/06/09 01:36:36;;;;;;;5.00;3.10;;;;;;;25.63;46.81;100210.13;106385;1287;61829;-82
2022/06/09 01:39:03;;;;;;;5.00;3.20;;;;;;;25.63;46.75;100208.51;106439;1287;72585;-83
2022/06/09 01:41:28;;;;;;;4.70;3.10;;;;;;;25.63;46.83;100206.55;106356;1287;74690;-81
2022/06/09 01:43:54;;;;;;;5.50;3.20;;;;;;;25.63;46.92;100206.54;106237;1287;61298;-82
2022/06/09 01:46:25;;;;;;;5.60;3.60;;;;;;;25.63;46.77;100205.42;106390;1287;61270;-82
2022/06/09 01:48:54;;;;;;;7.40;3.30;;;;;;;25.63;46.85;100203.97;106471;1287;72770;-80
2022/06/09 01:51:20;;;;;;;4.40;3.20;;;;;;;25.63;46.70;100202.71;106152;1288;74733;-81
2022/06/09 01:53:48;;;;;;;4.90;3.10;;;;;;;25.62;46.88;100197.76;106426;1287;61431;-84
2022/06/09 01:56:53;;;;;;;4.40;2.80;;;;;;;25.63;47.01;100201.14;106373;1287;61366;-82
2022/06/09 01:59:28;;;;;;;5.20;3.10;;;;;;;25.62;47.06;100197.81;106402;1287;71995;-85
2022/06/09 02:01:55;;;;;;;4.50;2.90;;;;;;;25.63;46.87;100193.10;106444;1287;74724;-84
2022/06/09 02:04:45;;;;;;;3.80;2.60;;;;;;;25.62;46.96;100191.83;106430;1289;61228;-81
2022/06/09 02:07:11;;;;;;;4.40;2.80;;;;;;;25.63;47.10;100193.98;106124;1287;61180;-81
2022/06/09 02:09:37;;;;;;;4.90;3.10;;;;;;;25.62;46.96;100189.34;106215;1288;61378;-82
2022/06/09 02:12:10;;;;;;;4.20;2.80;;;;;;;25.62;47.13;100190.92;106148;1289;61346;-82
2022/06/09 02:14:36;;;;;;;6.00;3.00;;;;;;;25.63;47.23;100186.56;106684;1283;61287;-82
2022/06/09 02:17:03;;;;;;;4.30;2.70;;;;;;;25.62;47.25;100186.26;106883;1283;59278;-83
2022/06/09 02:19:29;;;;;;;4.10;2.90;;;;;;;25.62;47.32;100185.69;106910;1283;73654;-85
2022/06/09 02:21:54;;;;;;;4.50;2.90;;;;;;;25.62;47.31;100184.30;106861;1283;61264;-82
2022/06/09 02:24:20;;;;;;;4.60;2.70;;;;;;;25.62;47.41;100186.45;106962;1283;61281;-85
2022/06/09 02:26:45;;;;;;;5.00;2.90;;;;;;;25.62;47.51;100187.89;106935;1283;61416;-82
2022/06/09 02:29:11;;;;;;;5.70;2.90;;;;;;;25.61;47.34;100182.70;106875;1283;61135;-82
2022/06/09 02:31:37;;;;;;;4.90;2.80;;;;;;;25.61;47.41;100181.11;106993;1283;61355;-82
2022/06/09 02:34:02;;;;;;;4.30;2.90;;;;;;;25.61;47.52;100177.84;107237;1283;61254;-82
2022/06/09 02:36:28;;;;;;;4.90;3.00;;;;;;;25.62;47.47;100175.31;106969;1283;61362;-81
2022/06/09 02:38:54;;;;;;;4.30;2.70;;;;;;;25.61;47.45;100174.80;106941;1283;61270;-82
2022/06/09 02:41:19;;;;;;;4.50;2.80;;;;;;;25.61;47.53;100173.55;107246;1283;61297;-81
2022/06/09 02:43:45;;;;;;;4.40;2.80;;;;;;;25.61;47.60;100171.24;106887;1283;61738;-82
2022/06/09 02:46:11;;;;;;;4.30;2.80;;;;;;;25.61;47.49;100169.27;106943;1283;61250;-82
2022/06/09 02:48:37;;;;;;;5.00;3.10;;;;;;;25.61;47.56;100164.55;106908;1283;61286;-84
2022/06/09 02:51:23;;;;;;;4.90;2.70;;;;;;;25.61;47.73;100166.73;106899;1283;61220;-84
2022/06/09 02:53:49;;;;;;;4.30;2.90;;;;;;;25.60;47.62;100167.29;106666;1283;71499;-83
2022/06/09 02:56:15;;;;;;;4.80;2.90;;;;;;;25.60;47.64;100173.06;106907;1283;61349;-84
2022/06/09 02:58:41;;;;;;;5.80;2.80;;;;;;;25.61;47.60;100172.17;106932;1283;59426;-82
2022/06/09 03:01:07;;;;;;;4.00;2.70;;;;;;;25.60;47.65;100173.61;106647;1283;61141;-84
2022/06/09 03:03:33;;;;;;;4.10;2.60;;;;;;;25.61;47.75;100167.14;106900;1283;61285;-81
2022/06/09 03:05:58;;;;;;;4.90;3.00;;;;;;;25.61;47.66;100170.14;106883;1283;61305;-81
2022/06/09 03:08:26;;;;;;;3.90;2.50;;;;;;;25.61;47.76;100174.27;106958;1283;61232;-81
2022/06/09 03:10:52;;;;;;;4.70;2.80;;;;;;;25.61;47.56;100168.88;106882;1283;61163;-81
2022/06/09 03:13:18;;;;;;;5.20;2.90;;;;;;;25.61;47.71;100164.18;107217;1283;62410;-81
2022/06/09 03:15:47;;;;;;;4.00;2.80;;;;;;;25.61;47.65;100158.41;106922;1283;61237;-81
2022/06/09 03:18:17;;;;;;;4.00;2.90;;;;;;;25.62;47.64;100161.96;106945;1283;61314;-81
2022/06/09 03:20:44;;;;;;;4.20;2.70;;;;;;;25.62;47.73;100156.92;106909;1283;61143;-83
2022/06/09 03:23:09;;;;;;;4.30;2.80;;;;;;;25.61;47.76;100160.01;106952;1283;61333;-81
2022/06/09 03:25:35;;;;;;;4.10;2.90;;;;;;;25.62;47.70;100158.91;106628;1283;61287;-80
2022/06/09 03:28:01;;;;;;;4.90;2.70;;;;;;;25.61;47.73;100160.00;106968;1283;61286;-79
2022/06/09 03:30:27;;;;;;;4.80;2.70;;;;;;;25.62;47.77;100161.40;106899;1283;61362;-81
2022/06/09 03:32:52;;;;;;;4.60;2.90;;;;;;;25.62;47.76;100166.84;106953;1283;61262;-83
2022/06/09 03:35:18;;;;;;;5.10;3.00;;;;;;;25.61;47.63;100173.71;106617;1283;71466;-83
2022/06/09 03:37:44;;;;;;;5.10;3.00;;;;;;;25.60;47.63;100174.31;106896;1283;61295;-83
2022/06/09 03:40:13;;;;;;;6.90;2.90;;;;;;;25.60;47.62;100175.10;107239;1283;61318;-79
2022/06/09 03:42:39;;;;;;;5.90;3.20;;;;;;;25.59;47.47;100169.60;106649;1283;61849;-82
2022/06/09 03:45:05;;;;;;;5.80;3.20;;;;;;;25.58;47.38;100168.83;106878;1283;61397;-82
2022/06/09 03:47:31;;;;;;;6.20;3.40;;;;;;;25.57;47.54;100171.45;107139;1283;61170;-81
2022/06/09 03:49:56;;;;;;;6.90;3.20;;;;;;;25.56;47.49;100174.95;106936;1283;61276;-81
2022/06/09 03:52:22;;;;;;;5.80;3.10;;;;;;;25.55;47.47;100179.73;106935;1281;61272;-82
2022/06/09 03:54:48;;;;;;;6.20;3.20;;;;;;;25.54;47.37;100182.02;106954;1283;61424;-81
2022/06/09 03:57:13;;;;;;;6.00;3.40;;;;;;;25.53;47.27;100180.32;107210;1283;72065;-82
2022/06/09 03:59:39;;;;;;;5.30;2.80;;;;;;;25.52;47.32;100178.63;106893;1283;61259;-83
2022/06/09 04:02:04;;;;;;;6.10;3.20;;;;;;;25.51;47.04;100178.05;107243;1283;61401;-81
2022/06/09 04:04:30;;;;;;;5.60;3.40;;;;;;;25.49;46.99;100171.34;106945;1283;61270;-80
2022/06/09 04:06:57;;;;;;;6.30;3.60;;;;;;;25.49;46.96;100170.12;106933;1283;61272;-81
2022/06/09 04:09:23;;;;;;;7.70;3.50;;;;;;;25.48;46.68;100168.06;106922;1283;61257;-82
2022/06/09 04:11:49;;;;;;;6.80;3.70;;;;;;;25.47;46.76;100167.05;107219;1283;61249;-82
2022/06/09 04:14:14;;;;;;;6.20;3.30;;;;;;;25.46;46.66;100166.45;107269;1282;61285;-82
2022/06/09 04:16:44;;;;;;;8.20;3.80;;;;;;;25.46;46.55;100165.02;106926;1283;61200;-81
2022/06/09 04:19:11;;;;;;;7.00;3.80;;;;;;;25.45;46.42;100166.14;106690;1283;72815;-81
2022/06/09 04:21:37;;;;;;;6.20;4.20;;;;;;;25.44;46.42;100167.80;106856;1284;74009;-82
2022/06/09 04:24:03;;;;;;;7.60;3.90;;;;;;;25.43;46.28;100166.52;106943;1283;61324;-79
2022/06/09 04:26:31;;;;;;;7.10;4.00;;;;;;;25.43;46.21;100168.70;106907;1283;61748;-81
2022/06/09 04:28:57;;;;;;;6.90;3.80;;;;;;;25.43;45.99;100167.27;106939;1283;73775;-82
2022/06/09 04:31:22;;;;;;;8.20;4.10;;;;;;;25.43;46.13;100171.21;106905;1283;61362;-84
2022/06/09 04:33:51;;;;;;;7.60;4.00;;;;;;;25.42;46.00;100174.12;107236;1283;61340;-83
2022/06/09 04:36:18;;;;;;;7.50;4.30;;;;;;;25.42;45.93;100171.30;106918;1283;61238;-79
2022/06/09 04:38:43;;;;;;;8.40;4.40;;;;;;;25.41;45.88;100168.35;106910;1283;59438;-81
2022/06/09 04:41:10;;;;;;;11.50;3.90;;;;;;;25.40;45.79;100166.59;106837;1283;62530;-82
2022/06/09 04:43:37;;;;;;;6.70;3.80;;;;;;;25.40;45.67;100161.56;106945;1282;61266;-82
2022/06/09 04:46:04;;;;;;;8.90;3.70;;;;;;;25.41;45.69;100158.60;106871;1284;61238;-82
2022/06/09 04:48:30;;;;;;;10.50;3.70;;;;;;;25.41;45.58;100161.27;106623;1283;62183;-81
2022/06/09 04:50:56;;;;;;;6.30;3.80;;;;;;;25.43;45.71;100164.38;106867;1283;59377;-82
2022/06/09 04:53:22;;;;;;;5.50;3.50;;;;;;;25.43;45.66;100168.31;107132;1283;61861;-81
2022/06/09 04:55:48;;;;;;;7.50;3.80;;;;;;;25.42;45.49;100175.05;106836;1283;62052;-81
2022/06/09 04:58:14;;;;;;;6.40;3.50;;;;;;;25.43;45.47;100177.69;106828;1283;61263;-82
2022/06/09 05:00:40;;;;;;;7.30;4.20;;;;;;;25.43;45.46;100182.32;107202;1283;61211;-82
2022/06/09 05:03:11;;;;;;;8.50;3.40;;;;;;;25.35;45.35;100181.38;107224;1283;61361;-83
2022/06/09 05:05:38;;;;;;;9.20;3.80;;;;;;;25.31;45.31;100180.84;106912;1283;61283;-82
2022/06/09 05:08:04;;;;;;;6.60;3.30;;;;;;;25.30;45.39;100186.01;106908;1283;72591;-81
2022/06/09 05:10:29;;;;;;;7.70;3.40;;;;;;;25.30;45.37;100190.48;106869;1283;61243;-82
2022/06/09 05:12:56;;;;;;;9.70;4.10;;;;;;;25.30;45.43;100191.37;106564;1283;61225;-82
2022/06/09 05:15:22;;;;;;;7.50;3.70;;;;;;;25.23;45.22;100194.58;106773;1283;61254;-82
2022/06/09 05:17:50;;;;;;;7.60;3.90;;;;;;;25.18;45.35;100200.15;106831;1283;61284;-81
2022/06/09 05:20:17;;;;;;;5.90;3.40;;;;;;;25.15;45.30;100205.42;106741;1283;61251;-80
2022/06/09 05:22:43;;;;;;;9.00;4.10;;;;;;;25.10;45.35;100208.27;106890;1283;61417;-81
2022/06/09 05:25:09;;;;;;;8.00;3.90;;;;;;;25.00;45.23;100207.10;106548;1283;61407;-80
2022/06/09 05:27:35;;;;;;;7.50;3.80;;;;;;;24.97;45.56;100211.73;106844;1283;61246;-80
2022/06/09 05:30:02;;;;;;;10.80;4.30;;;;;;;24.99;45.43;100213.13;106755;1283;61275;-80
2022/06/09 05:32:28;;;;;;;12.80;4.10;;;;;;;24.91;45.50;100209.42;106455;1284;61234;-80
2022/06/09 05:34:55;;;;;;;9.90;3.60;;;;;;;24.79;45.43;100212.52;107050;1283;61237;-80
2022/06/09 05:37:20;;;;;;;7.60;3.80;;;;;;;24.62;45.66;100217.23;106441;1283;61258;-81
2022/06/09 05:45:15;;;;;;;7.50;2.90;;;;;;;24.69;45.80;100218.83;106780;1283;61154;-80
2022/06/09 05:47:41;;;;;;;10.10;3.20;;;;;;;24.67;45.51;100217.46;107042;1283;61715;-81
2022/06/09 05:50:07;;;;;;;6.00;3.10;;;;;;;24.51;45.55;100214.08;107034;1283;59722;-80
2022/06/09 05:52:33;;;;;;;6.30;3.50;;;;;;;24.47;45.44;100217.35;106780;1283;61253;-80
2022/06/09 05:54:59;;;;;;;8.50;3.30;;;;;;;24.36;45.56;100213.15;106750;1283;61415;-79
2022/06/09 05:57:25;;;;;;;7.90;3.20;;;;;;;24.44;45.67;100210.47;107024;1283;61489;-80
2022/06/09 05:59:50;;;;;;;7.30;3.70;;;;;;;24.54;45.60;100210.15;106616;1283;61329;-81
2022/06/09 06:02:17;;;;;;;7.40;3.10;;;;;;;24.57;45.54;100215.17;106739;1283;61229;-80
2022/06/09 06:04:43;;;;;;;10.90;4.00;;;;;;;24.57;45.53;100213.66;106765;1283;61332;-80
2022/06/09 06:07:09;;;;;;;8.90;3.70;;;;;;;24.52;45.59;100215.77;106673;1283;61436;-80
2022/06/09 06:09:34;;;;;;;5.50;3.50;;;;;;;24.45;45.61;100216.14;106699;1283;61238;-79
2022/06/09 06:12:03;;;;;;;5.60;3.20;;;;;;;24.39;45.79;100216.48;106417;1283;61007;-79
2022/06/09 06:14:29;;;;;;;6.30;3.10;;;;;;;24.46;45.84;100218.13;106287;1283;316329;-79
2022/06/09 06:16:55;;;;;;;8.90;3.90;;;;;;;24.56;45.76;100211.12;106610;1283;61321;-82
2022/06/09 06:19:22;;;;;;;9.10;2.90;;;;;;;24.61;45.59;100212.05;106709;1283;61292;-79
2022/06/09 06:21:49;;;;;;;5.20;3.00;;;;;;;24.60;45.53;100210.90;106580;1283;61372;-80
2022/06/09 06:24:15;;;;;;;6.30;2.90;;;;;;;24.61;45.35;100212.98;106553;1283;61348;-80
2022/06/09 06:26:41;;;;;;;6.80;2.90;;;;;;;24.62;45.30;100215.20;107271;1283;59919;-80
2022/06/09 06:29:08;;;;;;;6.80;2.70;;;;;;;24.65;45.19;100210.42;106754;1283;61295;-80
2022/06/09 06:31:34;;;;;;;5.40;2.80;;;;;;;24.58;45.18;100204.55;106298;1282;74662;-80
2022/06/09 06:34:00;;;;;;;7.60;2.60;;;;;;;24.64;45.16;100200.86;106519;1283;61209;-81
2022/06/09 06:36:27;;;;;;;11.80;2.90;;;;;;;24.68;44.99;100203.87;106897;1282;61253;-81
2022/06/09 06:38:53;;;;;;;8.00;2.70;;;;;;;24.73;45.11;100204.44;106922;1283;61358;-80
2022/06/09 06:41:18;;;;;;;7.70;2.60;;;;;;;24.80;45.09;100206.48;106647;1283;61350;-80
2022/06/09 06:43:45;;;;;;;5.30;2.70;;;;;;;24.83;44.99;100207.23;106964;1283;61327;-80
2022/06/09 06:46:10;;;;;;;6.70;2.80;;;;;;;24.86;44.92;100203.41;106640;1283;61287;-83
2022/06/09 06:48:36;;;;;;;5.00;2.50;;;;;;;24.90;44.73;100206.03;106988;1283;61399;-80
2022/06/09 06:51:02;;;;;;;5.30;2.50;;;;;;;24.87;44.60;100206.16;106604;1283;73054;-80
2022/06/09 06:53:29;;;;;;;6.40;2.50;;;;;;;24.87;44.56;100205.32;106828;1282;60346;-80
2022/06/09 06:55:54;;;;;;;6.00;2.40;;;;;;;24.94;44.88;100209.48;106723;1283;61252;-81
2022/06/09 06:58:20;;;;;;;6.70;2.50;;;;;;;24.99;44.64;100209.18;106373;1283;61272;-83
2022/06/09 07:00:45;;;;;;;9.70;2.50;;;;;;;25.01;44.58;100207.70;106629;1282;61232;-81
2022/06/09 07:03:11;;;;;;;5.40;2.60;;;;;;;25.07;44.50;100202.48;106437;1283;61397;-80
2022/06/09 07:05:38;;;;;;;5.50;2.60;;;;;;;25.03;44.21;100204.83;106326;1283;74688;-80
2022/06/09 07:08:04;;;;;;;8.40;2.30;;;;;;;24.95;43.86;100198.06;107150;1284;59374;-81
2022/06/09 07:10:31;;;;;;;4.90;2.00;;;;;;;24.96;43.89;100195.46;107298;1282;59109;-81
2022/06/09 07:12:57;;;;;;;7.20;2.40;;;;;;;25.01;43.86;100196.35;107266;1284;73631;-81
2022/06/09 07:15:23;;;;;;;6.20;2.40;;;;;;;25.07;43.85;100198.34;106823;1283;61145;-79
2022/06/09 07:17:49;;;;;;;5.60;2.30;;;;;;;25.11;43.56;100200.59;106575;1283;61330;-80
2022/06/09 07:20:14;;;;;;;6.50;2.60;;;;;;;25.08;43.37;100202.81;106610;1283;61351;-80
2022/06/09 07:22:40;;;;;;;5.80;2.40;;;;;;;25.10;43.26;100201.63;106564;1283;61168;-80
2022/06/09 07:25:06;;;;;;;5.00;2.30;;;;;;;25.13;43.21;100206.52;106314;1283;61275;-80
2022/06/09 07:27:32;;;;;;;4.50;2.00;;;;;;;25.14;42.93;100207.14;106391;1283;59454;-79
2022/06/09 07:29:58;;;;;;;3.90;2.00;;;;;;;25.13;42.80;100207.22;106686;1283;61321;-80
2022/06/09 07:32:23;;;;;;;9.50;2.30;;;;;;;25.13;42.78;100206.38;106563;1283;61205;-80
2022/06/09 07:34:49;;;;;;;5.30;2.40;;;;;;;25.14;42.62;100204.30;106511;1283;61447;-81
2022/06/09 07:37:16;;;;;;;5.40;2.20;;;;;;;25.14;42.40;100206.29;106191;1283;61240;-80
2022/06/09 07:39:42;;;;;;;5.50;2.20;;;;;;;25.12;42.14;100208.13;106525;1284;61371;-80
2022/06/09 07:42:08;;;;;;;4.40;2.10;;;;;;;25.06;41.97;100202.52;106805;1283;61457;-80
2022/06/09 07:44:33;;;;;;;4.00;2.20;;;;;;;25.01;42.00;100201.92;106616;1283;61215;-83
2022/06/09 07:46:59;;;;;;;4.30;2.00;;;;;;;25.00;41.89;100196.87;106051;1283;61443;-79
2022/06/09 07:49:25;;;;;;;10.60;2.40;;;;;;;24.95;41.82;100200.86;106625;1283;61327;-81
2022/06/09 07:51:51;;;;;;;5.50;2.10;;;;;;;24.93;41.94;100203.03;107265;1283;60271;-81
2022/06/09 07:54:17;;;;;;;6.70;2.10;;;;;;;24.94;41.84;100206.80;107316;1283;59143;-81
2022/06/09 07:56:43;;;;;;;6.50;2.20;;;;;;;24.94;41.90;100204.07;107194;1282;58892;-81
2022/06/09 07:59:08;;;;;;;6.50;2.60;;;;;;;24.98;41.91;100199.57;107247;1282;59559;-80
2022/06/09 08:01:34;;;;;;;11.90;3.10;;;;;;;25.00;42.02;100200.25;107191;1283;59495;-80
2022/06/09 08:04:00;;;;;;;9.20;2.70;;;;;;;25.01;42.14;100194.05;107392;1283;59119;-81
2022/06/09 08:06:26;;;;;;;10.70;2.50;;;;;;;25.05;42.25;100193.11;106674;1282;61480;-80
2022/06/09 08:08:51;;;;;;;7.30;2.80;;;;;;;25.09;42.28;100192.20;106552;1283;61303;-80
2022/06/09 08:11:17;;;;;;;5.30;2.50;;;;;;;25.09;42.37;100198.14;106573;1283;61437;-80
2022/06/09 08:13:43;;;;;;;4.70;2.50;;;;;;;25.00;42.20;100205.62;106623;1283;59546;-80
2022/06/09 08:16:09;;;;;;;9.30;2.90;;;;;;;24.80;42.36;100207.02;106711;1283;61326;-79
2022/06/09 08:18:34;;;;;;;8.10;2.70;;;;;;;24.75;42.76;100203.71;106858;1283;61282;-80
2022/06/09 08:21:00;;;;;;;5.00;2.60;;;;;;;24.79;42.72;100211.86;106652;1283;61238;-80
2022/06/09 08:23:27;;;;;;;5.40;2.80;;;;;;;24.68;42.71;100212.89;106413;1283;74705;-81
2022/06/09 08:25:54;;;;;;;9.10;2.70;;;;;;;24.60;42.91;100210.34;106578;1283;61506;-81
2022/06/09 08:28:20;;;;;;;5.20;2.70;;;;;;;24.56;43.06;100211.96;107481;1283;60362;-83
2022/06/09 08:30:51;;;;;;;5.80;2.70;;;;;;;24.56;43.13;100216.47;107567;1283;59170;-81
2022/06/09 08:33:17;;;;;;;8.10;2.50;;;;;;;24.60;43.16;100215.34;107537;1283;75894;-81
2022/06/09 08:35:44;;;;;;;8.60;2.70;;;;;;;24.63;43.17;100213.58;106823;1283;61604;-81
2022/06/09 08:38:09;;;;;;;5.30;2.80;;;;;;;24.68;43.19;100212.55;106649;1283;61099;-81
2022/06/09 08:40:47;;;;;;;6.40;2.20;;;;;;;24.69;43.06;100217.23;106505;1282;61497;-80
2022/06/09 08:43:31;;;;;;;6.70;2.50;;;;;;;24.63;43.05;100214.81;106890;1282;75785;-81
2022/06/09 08:46:01;;;;;;;6.10;2.70;;;;;;;24.66;42.94;100216.63;106681;1283;61328;-81
2022/06/09 08:48:27;;;;;;;7.70;2.30;;;;;;;24.68;42.93;100212.90;106863;1283;61870;-81
2022/06/09 08:51:02;;;;;;;5.20;2.40;;;;;;;24.71;42.85;100218.15;107592;1282;72674;-81
2022/06/09 08:53:43;;;;;;;8.20;2.70;;;;;;;24.74;42.77;100214.98;106637;1283;75710;-80
2022/06/09 08:56:15;;;;;;;6.70;2.50;;;;;;;24.75;42.66;100210.96;107065;1285;61274;-81
2022/06/09 08:58:45;;;;;;;6.50;2.90;;;;;;;24.74;42.57;100214.29;106652;1283;61417;-81
2022/06/09 09:01:17;;;;;;;7.00;2.60;;;;;;;24.75;42.71;100214.37;106955;1283;72762;-81
2022/06/09 09:03:48;;;;;;;8.10;2.40;;;;;;;24.81;42.64;100210.36;107012;1283;74768;-82
2022/06/09 09:06:23;;;;;;;5.70;2.30;;;;;;;24.86;42.65;100209.39;106533;1286;61176;-81
2022/06/09 09:08:48;;;;;;;7.00;2.50;;;;;;;24.87;42.52;100216.28;106708;1282;61515;-82
2022/06/09 09:11:34;;;;;;;5.40;2.40;;;;;;;24.75;42.33;100217.58;106469;1283;61627;-81
2022/06/09 09:14:03;;;;;;;7.70;2.20;;;;;;;24.66;42.41;100216.35;107162;1283;75912;-82
2022/06/09 09:16:55;;;;;;;7.20;2.50;;;;;;;24.59;42.59;100216.21;106821;1283;61495;-82
2022/06/09 09:19:52;;;;;;;8.00;2.70;;;;;;;24.57;42.74;100209.94;107109;1283;61192;-81
2022/06/09 09:22:27;;;;;;;7.50;2.60;;;;;;;24.62;42.75;100210.52;106886;1283;72511;-81
2022/06/09 09:25:11;;;;;;;6.80;2.50;;;;;;;24.51;42.67;100201.48;107002;1283;74570;-81
2022/06/09 09:27:57;;;;;;;5.30;2.10;;;;;;;24.40;43.04;100198.97;107130;1283;60157;-82
2022/06/09 09:30:40;;;;;;;5.20;2.30;;;;;;;24.33;43.07;100196.35;106779;1283;61446;-81
2022/06/09 09:33:08;;;;;;;7.10;2.50;;;;;;;24.31;43.17;100196.00;106797;1283;72506;-81
2022/06/09 09:35:40;;;;;;;6.80;2.40;;;;;;;24.25;43.01;100193.92;106451;1283;75688;-82
2022/06/09 09:38:06;;;;;;;6.70;2.40;;;;;;;24.06;43.05;100193.67;106820;1283;61134;-81
2022/06/09 09:40:37;;;;;;;9.50;2.40;;;;;;;23.99;43.26;100189.34;106635;1283;61245;-82
2022/06/09 09:43:15;;;;;;;9.80;2.70;;;;;;;24.06;43.36;100192.79;106599;1283;73058;-82
2022/06/09 09:45:43;;;;;;;4.60;2.70;;;;;;;24.01;43.51;100190.35;106565;1283;74707;-81
2022/06/09 09:48:39;;;;;;;8.90;2.50;;;;;;;24.02;43.72;100183.30;107286;1283;61293;-81
2022/06/09 09:51:10;;;;;;;5.30;2.80;;;;;;;24.14;43.89;100181.11;105842;1290;61379;-80
2022/06/09 09:54:00;;;;;;;7.60;2.50;;;;;;;24.27;43.85;100177.36;106508;1289;73701;-81
2022/06/09 09:56:36;;;;;;;8.40;2.90;;;;;;;24.37;43.87;100180.48;106143;1289;75909;-80
2022/06/09 09:59:05;;;;;;;5.30;2.60;;;;;;;24.39;43.71;100178.50;106313;1289;61252;-80
2022/06/09 10:01:34;;;;;;;8.20;2.50;;;;;;;24.35;43.74;100179.79;105915;1289;61792;-81
2022/06/09 10:09:44;;;;;;;5.90;2.50;;;;;;;24.40;43.28;100173.39;106091;1289;61094;-80
2022/06/09 10:12:11;;;;;;;4.00;2.30;;;;;;;24.46;43.17;100176.40;106169;1288;61354;-81
2022/06/09 10:14:52;;;;;;;7.70;2.30;;;;;;;24.53;43.06;100175.45;105988;1289;73775;-81
2022/06/09 10:17:26;;;;;;;5.20;2.70;;;;;;;24.55;42.87;100169.26;106271;1288;73894;-80
2022/06/09 10:20:13;;;;;;;6.70;2.70;;;;;;;24.45;42.80;100168.63;106251;1289;61326;-82
2022/06/09 10:22:40;;;;;;;6.20;2.70;;;;;;;24.34;43.09;100168.38;106322;1289;61360;-82
2022/06/09 10:25:39;;;;;;;5.50;2.40;;;;;;;24.40;43.18;100167.05;106032;1289;73039;-82
2022/06/09 10:28:31;;;;;;;5.60;2.80;;;;;;;24.49;43.18;100162.61;106460;1284;74666;-83
2022/06/09 10:31:44;;;;;;;7.10;3.50;;;;;;;24.60;43.14;100161.20;107009;1283;61292;-79
2022/06/09 10:34:45;;;;;;;5.30;2.70;;;;;;;24.68;43.12;100159.03;106315;1289;60059;-82
2022/06/09 10:37:44;;;;;;;6.40;3.00;;;;;;;24.77;43.34;100147.05;105809;1289;73503;-82
2022/06/09 10:40:31;;;;;;;9.20;3.80;;;;;;;24.86;43.11;100143.45;106208;1289;75596;-82
2022/06/09 10:43:05;;;;;;;5.30;2.60;;;;;;;24.89;43.04;100141.94;106326;1289;61411;-82
2022/06/09 10:45:49;;;;;;;6.80;2.80;;;;;;;24.92;43.23;100134.98;106145;1289;61157;-82
2022/06/09 10:57:38;;;;;;;5.10;3.10;;;;;;;25.03;43.19;100128.13;105505;1294;61281;-81
2022/06/09 11:00:11;;;;;;;5.00;2.70;;;;;;;25.03;43.26;100122.05;105529;1295;73591;-82
2022/06/09 11:02:38;;;;;;;6.60;3.20;;;;;;;25.07;43.38;100119.49;105278;1295;74809;-79
2022/06/09 11:05:04;;;;;;;6.00;3.30;;;;;;;25.10;43.50;100114.80;105299;1295;61502;-81
2022/06/09 11:07:36;;;;;;;6.90;3.50;;;;;;;25.13;43.31;100113.98;105404;1289;59280;-80
2022/06/09 11:10:29;;;;;;;5.80;3.20;;;;;;;25.08;43.10;100115.02;106161;1289;71475;-83
2022/06/09 11:13:03;;;;;;;5.20;3.30;;;;;;;25.01;43.07;100107.10;105969;1289;76119;-81
2022/06/09 11:15:44;;;;;;;6.80;3.20;;;;;;;24.99;43.07;100105.64;106216;1289;61175;-82
2022/06/09 11:18:19;;;;;;;6.60;2.80;;;;;;;25.00;42.99;100100.31;106015;1289;61047;-82
2022/06/09 11:21:08;;;;;;;5.60;3.00;;;;;;;25.02;42.84;100097.12;105949;1292;72883;-82
2022/06/09 11:24:05;;;;;;;5.60;2.70;;;;;;;25.02;42.72;100100.39;105908;1291;75655;-79
2022/06/09 11:26:54;;;;;;;4.60;2.70;;;;;;;25.01;42.63;100095.88;106056;1289;61180;-80
2022/06/09 11:29:38;;;;;;;4.70;2.60;;;;;;;25.06;42.69;100091.49;106587;1283;61269;-82
2022/06/09 11:32:33;;;;;;;5.60;2.30;;;;;;;25.09;42.39;100088.96;106567;1285;74204;-82
2022/06/09 11:35:05;;;;;;;4.60;2.70;;;;;;;25.11;42.24;100084.35;106996;1283;74539;-82
2022/06/09 11:38:28;;;;;;;6.30;2.90;;;;;;;25.13;42.08;100076.06;106978;1283;61007;-82
2022/06/09 11:41:08;;;;;;;7.20;2.40;;;;;;;25.13;41.86;100072.75;106209;1289;61301;-84
2022/06/09 11:43:39;;;;;;;4.10;2.50;;;;;;;25.08;41.45;100072.14;106108;1289;73059;-81
2022/06/09 11:46:12;;;;;;;4.50;2.40;;;;;;;25.10;41.49;100067.67;105953;1289;73757;-82
2022/06/09 11:49:01;;;;;;;6.60;2.30;;;;;;;25.13;41.30;100067.63;106213;1289;61042;-82
2022/06/09 11:51:28;;;;;;;4.70;2.40;;;;;;;25.10;41.00;100061.92;106065;1289;61608;-81